Terminal Aerodrome Forecast
Issued by NWS

Home | Current Version | Previous Version | Text Only | Print | Product List | Glossary On
Versions: 1 2 3 4 5 6 7 8 9 10 11 12 13
000
FTUS43 KEAX 111100
TAFSTJ
TAF
KSTJ 111122Z 1112/1212 16009KT P6SM VCTS BKN100CB
      TEMPO 1112/1114 P6SM -TSRA BKN050CB
     FM111500 18011G20KT P6SM SCT100
     FM120100 19008KT P6SM SCT100=

USA.gov is the U.S. government's official web portal to all federal, state and local government web resources and services.